Estación meteorológica de Montseny - Vallcàrquera (Vallès Oriental, Parc Natural del Montseny)

Consulta los datos en tiempo real de la estación meteorológica de Montseny - Vallcàrquera





Hora UTC 21:55
Temperatura 19.8 ºC
Humedad 69.3 %
Pluja 0.0 mm
Velocidad viento 0.9 km/h
Dirección viento NE
Radiación solar 0.0 W/m²

Datos diarios 2026-09-02



Hora UTC (invierno +1h; verano +2h)
Temperatura (ºC) Humedad (%) Velocidad viento (km/h) Precipitación (mm) Radiación solar (W/m²)
Hora UTC Aire Humedad Vel. Dir. Vel. Max Dir. Intent. máx 5 min. Rad. Sol.
00:05 18.8 86.0 3.5 ENE 3.5 ENE 0.0 0.0
00:10 18.9 85.8 1.9 NE 4.2 ENE 0.0 0.0
00:15 18.9 86.0 2.6 NE 4.6 E 0.0 0.0
00:20 19.0 85.5 2.8 NE 5.3 NE 0.0 0.0
00:25 19.1 85.2 2.3 NE 3.9 ENE 0.0 0.0
00:30 19.0 85.6 1.5 NE 3.2 N 0.0 0.0
00:35 18.9 86.0 1.2 N 3.2 N 0.0 0.0
00:40 18.8 87.1 1.2 ENE 2.5 ENE 0.0 0.0
00:45 18.8 87.4 2.4 ENE 4.2 NE 0.0 0.0
00:50 18.9 86.6 2.0 NE 3.5 NNE 0.0 0.0
00:55 18.9 87.0 1.7 N 3.5 NNE 0.0 0.0
01:00 18.8 87.7 0.2 N 1.8 N 0.0 0.0
01:05 18.7 88.2 1.3 NNE 2.5 NE 0.0 0.0
01:10 18.8 87.9 1.2 NNE 2.1 NE 0.0 0.0
01:15 18.6 88.3 0.8 NE 2.5 ENE 0.0 0.0
01:20 18.6 89.3 0.7 NNE 2.5 NNE 0.0 0.0
01:25 18.6 88.8 0.9 N 2.1 N 0.0 0.0
01:30 18.7 89.2 0.9 N 2.5 N 0.0 0.0
01:35 18.6 89.3 0.5 N 1.8 NNW 0.0 0.0
01:40 18.6 89.4 1.0 NNW 2.1 NNW 0.0 0.0
01:45 18.6 89.4 1.0 NNW 2.1 N 0.0 0.0
01:50 18.5 89.5 0.4 NNW 2.1 NNW 0.0 0.0
01:55 18.3 90.1 0.8 N 2.5 N 0.0 0.0
02:00 18.3 90.6 1.1 NNW 2.5 N 0.0 0.0
02:05 18.1 90.2 1.2 NE 2.5 ENE 0.0 0.0
02:10 18.1 90.9 1.8 N 2.8 N 0.0 0.0
02:15 18.1 90.4 1.0 NNE 3.5 ENE 0.0 0.0
02:20 18.0 90.8 2.0 N 2.8 N 0.0 0.0
02:25 18.1 90.7 1.0 NNW 2.1 NNW 0.0 0.0
02:30 17.9 90.7 1.0 NNE 2.1 ENE 0.0 0.0
02:35 18.0 90.9 0.9 NNE 2.5 N 0.0 0.0
02:40 17.9 90.5 1.9 NNE 3.2 NNW 0.0 0.0
02:45 17.9 91.2 1.6 NNW 2.5 NNW 0.0 0.0
02:50 17.8 90.1 0.2 S 1.4 SSW 0.0 0.0
02:55 17.6 91.4 1.7 ENE 3.2 ENE 0.0 0.0
03:00 17.6 92.1 1.7 NE 3.2 ENE 0.0 0.0
03:05 17.7 91.6 0.7 NE 2.8 NE 0.0 0.0
03:10 17.6 91.5 1.2 NE 2.8 ENE 0.0 0.0
03:15 17.6 91.7 0.7 NNW 1.8 NNW 0.0 0.0
03:20 17.6 92.1 0.5 NNE 1.8 NNE 0.0 0.0
03:25 17.7 91.7 2.0 NE 3.5 NE 0.0 0.0
03:30 17.7 90.9 0.9 NNE 2.8 N 0.0 0.0
03:35 17.6 90.8 2.6 ENE 4.9 ENE 0.0 0.0
03:40 17.5 91.5 0.5 N 1.8 ENE 0.0 0.0
03:45 17.5 91.5 0.8 N 2.1 N 0.0 0.0
03:50 17.5 91.7 1.8 NE 3.2 NE 0.0 0.0
03:55 17.5 91.1 2.2 NE 4.2 ENE 0.0 0.0
04:00 17.5 91.1 1.5 N 2.5 N 0.0 0.0
04:05 17.4 90.9 1.8 NE 3.2 E 0.0 0.0
04:10 17.3 91.5 1.8 NE 3.5 ENE 0.0 0.0
04:15 17.3 91.5 0.8 N 2.1 N 0.0 0.0
04:20 17.1 91.6 2.7 ENE 4.9 ENE 0.0 0.0
04:25 17.1 92.0 0.9 NNE 4.2 NNE 0.0 0.0
04:30 17.1 91.6 2.9 ENE 6.7 ENE 0.0 0.0
04:35 17.2 91.2 1.7 NE 4.6 ENE 0.0 0.0
04:40 17.1 90.7 0.4 NE 1.8 NNE 0.0 0.0
04:45 17.1 91.5 1.1 NNE 2.5 N 0.0 0.0
04:50 17.0 91.5 1.2 NNE 2.5 NE 0.0 0.0
04:55 17.0 91.7 2.6 NE 4.6 ENE 0.0 0.0
05:00 17.0 91.4 0.7 NE 2.1 NE 0.0 0.0
05:05 17.0 91.3 1.5 ENE 4.2 ENE 0.0 0.0
05:10 16.8 91.8 1.3 NE 3.9 ENE 0.0 0.0
05:15 16.9 91.6 1.7 NE 3.9 ENE 0.0 0.4
05:20 16.8 91.5 0.4 NNE 1.8 N 0.0 1.5
05:25 16.7 91.8 1.1 NE 3.5 NE 0.0 3.3
05:30 16.7 91.9 0.2 NE 2.1 ENE 0.0 5.9
05:35 16.7 92.1 0.8 N 2.1 N 0.0 8.9
05:40 16.7 92.1 2.1 NE 3.9 ENE 0.0 11.7
05:45 16.7 91.9 2.4 ENE 4.2 ENE 0.0 14.4
05:50 16.7 92.4 1.2 NE 2.8 NE 0.0 16.7
05:55 16.7 92.1 3.0 ENE 4.6 ENE 0.0 19.2
06:00 16.7 91.8 2.0 NE 3.5 NE 0.0 21.6
06:05 16.7 91.8 0.5 NNE 2.1 ENE 0.0 24.4
06:10 16.8 91.9 0.5 NNE 1.4 NE 0.0 26.8
06:15 16.9 91.8 1.8 NE 3.2 ENE 0.0 29.6
06:20 16.9 91.5 2.8 ENE 4.6 ENE 0.0 32.0
06:25 16.9 91.6 0.6 NNE 2.1 NE 0.0 34.7
06:30 16.9 91.2 2.9 ENE 6.0 E 0.0 55.6
06:35 17.4 89.0 2.8 ENE 5.3 ENE 0.0 166.9
06:40 18.2 85.3 2.4 E 4.6 ENE 0.0 180.8
06:45 18.4 82.1 3.7 ENE 5.3 ENE 0.0 194.2
06:50 18.7 80.9 3.9 ENE 6.0 ENE 0.0 210.4
06:55 19.5 78.5 2.4 E 4.6 ENE 0.0 228.8
07:00 20.0 76.2 4.7 E 7.4 E 0.0 234.5
07:05 19.7 77.2 2.4 E 4.9 ENE 0.0 265.4
07:10 20.8 74.6 1.2 ESE 3.9 E 0.0 282.4
07:15 21.6 70.6 0.8 E 2.5 ESE 0.0 298.3
07:20 22.2 68.3 1.7 E 3.9 ESE 0.0 314.3
07:25 22.2 68.5 2.0 E 3.5 ENE 0.0 331.1
07:30 22.0 69.2 3.2 E 5.3 E 0.0 348.2
07:35 22.2 68.9 2.2 E 6.0 ENE 0.0 364.2
07:40 22.9 66.8 1.6 E 4.2 ENE 0.0 383.0
07:45 23.0 67.2 2.6 SE 5.6 ENE 0.0 397.5
07:50 23.3 66.0 3.2 E 6.4 ENE 0.0 413.5
07:55 23.2 66.1 2.5 ENE 5.3 ENE 0.0 428.0
08:00 23.5 65.0 2.2 E 4.9 ESE 0.0 443.5
08:05 24.0 63.5 1.7 ESE 4.6 ESE 0.0 458.3
08:10 24.7 61.9 1.1 SSE 3.5 SSE 0.0 473.8
08:15 24.9 60.7 1.5 S 4.9 SE 0.0 486.8
08:20 25.6 57.8 1.1 SSE 4.6 SW 0.0 500.2
08:25 26.3 55.9 1.5 SSW 3.5 WSW 0.0 514.3
08:30 26.3 56.1 1.7 S 4.6 SSW 0.0 528.5
08:35 26.5 54.5 3.0 SSW 7.1 SW 0.0 543.9
08:40 26.7 52.8 3.8 SSW 8.8 SSW 0.0 557.9
08:45 26.8 52.7 4.4 SSW 8.5 SW 0.0 572.1
08:50 27.0 51.4 5.1 SSW 10.9 SSW 0.0 585.9
08:55 27.4 49.7 3.4 SSW 8.5 S 0.0 598.4
09:00 27.7 48.4 4.6 SSW 11.6 SSW 0.0 609.9
09:05 28.1 46.1 3.3 SW 8.5 S 0.0 619.5
09:10 28.4 45.1 4.0 SSW 9.2 SSW 0.0 630.6
09:15 28.4 44.3 3.3 SSW 9.2 SW 0.0 641.1
09:20 28.5 43.5 4.5 SSW 8.8 SSW 0.0 654.6
09:25 28.7 43.6 3.7 S 7.4 S 0.0 665.2
09:30 29.2 42.4 3.1 S 5.6 SSW 0.0 675.0
09:35 29.4 42.1 4.2 SSW 8.5 SSE 0.0 685.4
09:40 29.9 41.0 3.5 SW 9.2 SSW 0.0 697.0
09:45 29.9 40.8 4.4 SW 10.9 S 0.0 706.9
09:50 30.2 39.6 2.9 SW 10.2 SSE 0.0 716.0
09:55 30.6 37.4 3.2 SW 9.5 S 0.0 724.1
10:00 30.4 37.2 4.2 S 11.6 SSW 0.0 733.7
10:05 30.8 35.7 4.2 SSW 10.6 SSW 0.0 745.2
10:10 31.3 32.9 3.9 S 8.5 SSW 0.0 741.1
10:15 31.5 30.3 2.2 SSW 6.0 SE 0.0 758.4
10:20 32.0 29.6 2.8 SSW 9.2 SW 0.0 764.7
10:25 32.1 28.5 3.8 W 10.9 SSE 0.0 772.3
10:30 31.3 28.4 4.1 W 10.9 WSW 0.0 776.1
10:35 31.7 27.1 3.5 WSW 8.8 SSW 0.0 788.5
10:40 32.2 26.4 2.9 SW 8.5 SSW 0.0 796.4
10:45 32.3 26.6 4.0 SSW 9.9 SSW 0.0 784.2
10:50 32.6 26.2 4.8 SW 14.5 SW 0.0 788.9
10:55 32.2 27.1 5.6 WSW 13.1 SSW 0.0 777.9
11:00 32.5 27.5 3.7 SE 11.6 SE 0.0 807.0
11:05 32.3 27.5 3.9 W 12.0 WSW 0.0 793.9
11:10 32.6 28.4 3.8 SSW 10.2 SSE 0.0 820.0
11:15 32.5 29.0 2.9 SW 7.8 SSW 0.0 817.0
11:20 32.4 31.2 4.9 WSW 12.0 WSW 0.0 818.0
11:25 32.1 33.1 4.5 W 14.1 WSW 0.0 819.0
11:30 31.6 35.3 5.9 WSW 15.5 SW 0.0 823.0
11:35 31.6 35.5 4.5 W 13.4 W 0.0 821.0
11:40 31.2 37.0 6.5 ESE 13.4 NE 0.0 823.0
11:45 31.4 36.1 3.6 SW 13.8 SW 0.0 825.0
11:50 31.9 35.1 3.8 S 10.6 SSW 0.0 827.0
11:55 31.8 35.5 3.8 ESE 13.4 SSW 0.0 826.0
12:00 31.9 35.1 5.2 WSW 20.5 WSW 0.0 826.0
12:05 32.0 35.2 4.5 SSE 17.3 SE 0.0 822.0
12:10 32.3 34.5 3.0 SE 10.6 S 0.0 819.0
12:15 31.6 35.5 5.1 ESE 12.7 E 0.0 818.0
12:20 31.3 36.0 4.8 SSW 16.2 ENE 0.0 819.0
12:25 31.8 34.9 4.6 SE 15.2 ENE 0.0 815.0
12:30 31.6 35.1 4.1 SSW 9.2 SW 0.0 812.0
12:35 31.9 34.8 3.3 S 8.5 WSW 0.0 811.0
12:40 32.2 33.9 4.3 S 16.2 SSE 0.0 806.0
12:45 31.1 36.2 4.5 ENE 12.4 E 0.0 799.3
12:50 31.1 36.6 5.0 SE 12.7 NW 0.0 798.7
12:55 30.5 37.6 6.6 E 18.0 ENE 0.0 794.8
13:00 30.5 38.0 4.3 SSW 13.8 ESE 0.0 792.0
13:05 30.8 37.4 4.6 S 19.1 SSW 0.0 786.7
13:10 30.5 37.8 4.2 SW 9.9 S 0.0 782.8
13:15 30.0 38.8 4.7 NNW 18.7 ENE 0.0 781.3
13:20 29.9 39.3 5.6 N 18.0 SSE 0.0 770.6
13:25 30.0 39.3 7.4 NE 16.2 E 0.0 763.1
13:30 29.9 39.4 3.3 SE 13.1 ENE 0.0 752.8
13:35 29.8 39.9 6.5 NW 19.1 E 0.0 745.3
13:40 30.5 38.9 4.3 SSW 10.6 WSW 0.0 738.2
13:45 31.0 37.5 4.8 ENE 11.3 E 0.0 728.7
13:50 31.4 36.7 2.9 WSW 8.8 WNW 0.0 718.0
13:55 30.9 37.9 4.6 ENE 14.5 ESE 0.0 706.5
14:00 30.7 38.5 3.7 WNW 8.5 SW 0.0 696.5
14:05 30.5 39.2 4.6 NNW 10.9 N 0.0 686.4
14:10 30.3 39.6 3.7 ESE 8.5 SE 0.0 679.9
14:15 31.0 38.0 2.4 WSW 11.3 SSW 0.0 669.9
14:20 31.1 38.0 4.0 SW 13.4 SSW 0.0 658.2
14:25 31.0 38.5 4.0 WSW 10.2 SW 0.0 649.1
14:30 30.2 40.8 5.9 W 15.5 SW 0.0 636.8
14:35 29.8 41.5 4.2 N 12.7 NNE 0.0 625.0
14:40 29.9 41.5 4.3 ESE 14.5 ENE 0.0 616.1
14:45 30.1 40.5 3.3 SW 10.6 WNW 0.0 599.9
14:50 30.6 39.3 3.9 SSW 12.4 WSW 0.0 587.0
14:55 30.5 39.3 3.9 WSW 11.3 WSW 0.0 572.8
15:00 29.8 41.0 5.9 E 16.6 SW 0.0 556.1
15:05 30.1 40.9 2.8 S 7.4 SSW 0.0 543.3
15:10 30.0 41.5 7.0 E 15.5 E 0.0 527.6
15:15 29.3 43.9 4.3 ESE 14.8 ENE 0.0 514.3
15:20 29.6 43.1 3.3 E 10.2 E 0.0 501.1
15:25 29.7 42.8 3.4 WNW 7.8 NW 0.0 486.6
15:30 29.9 42.2 4.8 WSW 10.9 S 0.0 473.9
15:35 29.5 43.6 3.2 S 12.4 SW 0.0 456.2
15:40 29.6 43.5 4.3 WSW 10.6 W 0.0 439.7
15:45 29.5 43.8 4.3 WSW 13.1 SSW 0.0 430.8
15:50 29.5 43.7 2.6 SSE 6.0 SSW 0.0 415.9
15:55 28.8 45.1 4.0 ESE 12.7 E 0.0 402.0
16:00 28.5 45.8 4.0 NE 11.6 ENE 0.0 361.8
16:10 28.8 46.3 3.5 SSW 13.1 SW 0.0 340.8
16:15 28.8 46.5 2.9 WNW 8.1 W 0.0 332.8
16:20 29.0 45.7 3.3 SSW 10.9 SSW 0.0 304.4
16:25 28.8 46.2 1.4 SE 4.9 SSE 0.0 292.0
16:30 28.5 46.9 4.9 SW 13.8 SSW 0.0 282.5
16:35 28.4 47.5 3.0 WSW 8.1 S 0.0 263.7
16:40 28.4 47.6 2.2 S 8.5 SSE 0.0 243.5
16:45 27.9 48.8 2.9 NE 12.4 SSE 0.0 231.1
16:50 27.9 48.7 3.1 SW 11.3 ENE 0.0 216.0
16:55 27.8 48.6 1.7 S 4.9 ESE 0.0 152.8
17:00 27.6 49.4 2.2 S 7.8 S 0.0 127.5
17:05 27.0 51.2 2.6 ESE 7.4 ENE 0.0 114.8
17:10 27.1 51.0 1.2 NE 5.6 SW 0.0 149.5
17:15 27.1 50.8 2.2 ESE 5.3 W 0.0 168.9
17:20 27.2 50.8 2.9 S 6.7 SSE 0.0 152.1
17:25 27.2 50.6 2.8 W 8.1 SSW 0.0 131.5
17:30 27.0 50.9 2.3 SW 7.4 WSW 0.0 112.7
17:35 26.9 51.2 1.0 SSW 4.2 S 0.0 95.2
17:40 26.6 51.6 2.0 SSW 5.6 SW 0.0 60.7
17:45 26.2 52.1 2.4 WSW 7.1 NW 0.0 50.6
17:50 25.8 53.3 2.3 WNW 6.0 WNW 0.0 26.5
17:55 25.5 54.6 0.5 W 2.8 NW 0.0 14.0
18:00 25.2 55.8 1.8 SE 6.7 S 0.0 12.5
18:05 24.9 56.8 1.8 SSE 5.3 SSE 0.0 11.6
18:10 24.8 57.5 1.7 E 5.3 E 0.0 9.4
18:15 24.6 58.1 0.8 NNE 2.8 NE 0.0 6.9
18:20 24.6 58.5 1.1 WNW 3.9 W 0.0 4.2
18:25 24.5 59.0 0.8 W 3.5 W 0.0 1.2
18:30 24.2 59.9 1.7 W 4.9 NNW 0.0 0.2
18:35 23.9 60.9 0.2 NNE 2.1 N 0.0 0.0
18:40 23.5 62.5 1.6 NE 2.5 ENE 0.0 0.0
18:45 23.2 63.4 0.9 NW 2.8 SSW 0.0 0.0
18:50 22.8 64.6 1.6 NE 4.9 NE 0.0 0.0
18:55 22.5 65.4 1.4 ENE 4.2 E 0.0 0.0
19:00 22.3 66.2 2.0 ENE 3.5 ENE 0.0 0.0
19:05 22.2 66.4 1.8 ENE 4.2 E 0.0 0.0
19:10 22.0 67.3 1.5 E 4.2 E 0.0 0.0
19:15 21.8 68.0 2.7 NE 4.9 ENE 0.0 0.0
19:20 21.8 67.7 3.0 ENE 5.3 ENE 0.0 0.0
19:25 21.8 67.9 1.5 NE 5.3 ENE 0.0 0.0
19:30 21.5 68.6 1.2 ENE 3.5 NE 0.0 0.0
19:35 21.5 69.1 2.5 NE 5.6 ENE 0.0 0.0
19:40 21.4 69.1 1.0 NE 4.6 ENE 0.0 0.0
19:45 21.3 69.4 1.3 NE 4.2 NE 0.0 0.0
19:50 21.1 70.2 1.9 ENE 3.5 ENE 0.0 0.0
19:55 21.0 71.0 2.4 NE 4.2 ENE 0.0 0.0
20:00 21.0 70.7 1.2 NNE 2.8 NE 0.0 0.0
20:05 20.9 71.2 1.7 NE 3.5 NE 0.0 0.0
20:10 20.8 71.6 2.2 ENE 4.6 ENE 0.0 0.0
20:15 20.8 71.6 1.5 NE 3.9 NE 0.0 0.0
20:20 20.7 71.8 3.5 ENE 6.4 ENE 0.0 0.0
20:25 20.7 72.1 2.3 ENE 4.9 ENE 0.0 0.0
20:30 20.7 71.9 1.6 N 2.8 N 0.0 0.0
20:35 20.6 72.4 0.4 NE 1.8 ENE 0.0 0.0
20:40 20.4 73.1 1.6 NNE 2.8 N 0.0 0.0
20:45 20.6 72.6 2.3 E 3.9 ENE 0.0 0.0
20:50 20.3 73.5 0.9 N 2.1 N 0.0 0.0
20:55 20.3 73.3 1.0 NNE 3.5 ENE 0.0 0.0
21:00 20.2 72.9 1.4 NNE 3.5 ENE 0.0 0.0
21:05 20.2 72.7 1.2 NNE 2.8 NE 0.0 0.0
21:10 20.2 71.6 1.4 NE 3.2 ENE 0.0 0.0
21:15 20.2 70.5 2.0 NE 3.5 NE 0.0 0.0
21:20 20.1 69.6 1.3 NE 2.5 ENE 0.0 0.0
21:25 20.0 69.3 1.3 NNE 2.5 NE 0.0 0.0
21:30 20.0 69.3 1.4 NNE 3.2 ENE 0.0 0.0
21:35 19.8 68.3 2.1 ENE 4.2 ENE 0.0 0.0
21:40 19.8 68.0 2.5 ENE 4.2 ENE 0.0 0.0
21:45 19.8 69.0 1.8 NNE 4.2 ENE 0.0 0.0
21:50 19.7 69.6 1.3 NNE 2.5 N 0.0 0.0
21:55 19.8 69.3 0.9 NE 2.5 ENE 0.0 0.0
Máxima 32.6 92.4 7.4 NE 20.5 WSW 0.0 827.0
Mínima 16.7 26.2
Total 0.0